Darstellungsparameter: Aktuell verwendete Einstellungen:
Skalierung der Graphiken ... ?
xyx+y,   Skalierungsfaktor:      Skalierung: Modus: x, Faktor: 1
Darstellungszeitraum ... ?
Vom - - bis: - -   Zeitraum: 24.02.2003 - 25.02.2003
Min/Max/Avg-Anzeige ... ?
Zeige MMA aktuell
Zeige MMA Monat
Zeige MMA alles
Zeige --A aktuell
Zeige --A Monat
Zeige --A alles
Keine MMA-Anzeige
MMA:
Average (ber die Originaldaten)
MMA-Basis: 24.02.2003 - 25.02.2003
Quicknavigation für Darstellung... ?
Tage:      1T, 2T, 3T, 5T -1T -2T -3T -5T +1T +2T +3T +5T
Wochen: 1W, 2W, 3W -1W -2W -3W +1W +2W +3W
Monate: 1M, 3M, 6M -1M -3M -6M +1M +3M +6M
Jahre:    1J, 3J, 5J, 10J -1J -3J -5J -10J +1J +3J +5J +10J
Nutze für die Darstellung ... ?
Originaldaten oder Mittelwerte auf ...
Stundenbasis Tagesbasis Wochenbasis
Monatsbasis Jahresbasis      Datenbasis: Original-Daten
Darstellen als:
Statistik (Auto) Statistik J:M      Darstellung:
Zur Graphik,    zurück zur Übersicht aller Sensoren.
 
Tabellarische Datenbersicht: ?
 
Sensor: Nr:Datum:Temp:Abs-Feuchte:Windchill:Wind:
Aussen-T/F 1 24-02-2003 00:00:04 -0.8 C 3.44 g/m*3 -0.8 C 0 km/h
2 24-02-2003 00:10:04 -0.9 C 3.41 g/m*3 -0.9 C 0 km/h
3 24-02-2003 00:20:04 -0.9 C 3.46 g/m*3 -0.9 C 0 km/h
4 24-02-2003 00:30:04 -0.9 C 3.46 g/m*3 -0.9 C 0 km/h
5 24-02-2003 00:40:04 -1.1 C 3.41 g/m*3 -1.1 C 0 km/h
6 24-02-2003 00:50:04 -1.1 C 3.46 g/m*3 -1.1 C 0 km/h
7 24-02-2003 01:00:04 -1.2 C 3.43 g/m*3 -1.2 C 0 km/h
8 24-02-2003 01:10:04 -1.4 C 3.39 g/m*3 -1.4 C 0 km/h
9 24-02-2003 01:20:04 -1.7 C 3.31 g/m*3 -1.7 C 0 km/h
10 24-02-2003 01:30:04 -2 C 3.2 g/m*3 -2 C 0 km/h
11 24-02-2003 01:40:04 -2.1 C 3.22 g/m*3 -2.1 C 0 km/h
12 24-02-2003 01:50:04 -1.9 C 3.31 g/m*3 -1.9 C 0 km/h
13 24-02-2003 02:00:04 -1.9 C 3.35 g/m*3 -1.9 C 0 km/h
14 24-02-2003 02:10:04 -1.9 C 3.35 g/m*3 -1.9 C 0 km/h
15 24-02-2003 02:20:04 -1.9 C 3.31 g/m*3 -1.9 C 0 km/h
16 24-02-2003 02:30:04 -2.1 C 3.26 g/m*3 -2.1 C 0 km/h
17 24-02-2003 02:40:04 -2 C 3.33 g/m*3 -2 C 0 km/h
18 24-02-2003 02:50:04 -2.1 C 3.31 g/m*3 -2.1 C 0 km/h
19 24-02-2003 03:00:04 -2.3 C 3.22 g/m*3 -2.3 C 0 km/h
20 24-02-2003 03:10:04 -2.7 C 3.13 g/m*3 -2.7 C 0 km/h
21 24-02-2003 03:20:04 -2.8 C 3.11 g/m*3 -2.8 C 0 km/h
22 24-02-2003 03:30:04 -2.7 C 3.17 g/m*3 -2.7 C 0 km/h
23 24-02-2003 03:40:04 -2.8 C 3.15 g/m*3 -2.8 C 0 km/h
24 24-02-2003 03:50:04 -3 C 3.06 g/m*3 -3 C 0 km/h
25 24-02-2003 04:00:04 -3 C 3.1 g/m*3 -3 C 0 km/h
Sensor: Nr:Datum:Temp:Abs-Feuchte:Windchill:Wind:
Aussen-T/F 26 24-02-2003 04:10:04 -2.8 C 3.15 g/m*3 -2.8 C 0 km/h
27 24-02-2003 04:20:04 -2.7 C 3.21 g/m*3 -2.7 C 0 km/h
28 24-02-2003 04:30:04 -3 C 3.14 g/m*3 -3 C 0 km/h
29 24-02-2003 04:40:04 -3.1 C 3.08 g/m*3 -3.1 C 0 km/h
30 24-02-2003 04:50:04 -3 C 3.1 g/m*3 -3 C 0 km/h
31 24-02-2003 05:00:04 -3.2 C 3.06 g/m*3 -3.2 C 0 km/h
32 24-02-2003 05:10:04 -3.3 C 3.04 g/m*3 -3.3 C 0 km/h
33 24-02-2003 05:20:04 -3.3 C 3.08 g/m*3 -3.3 C 0 km/h
34 24-02-2003 05:30:04 -3.3 C 3.08 g/m*3 -3.3 C 0 km/h
35 24-02-2003 05:40:04 -3.4 C 3.02 g/m*3 -3.4 C 0 km/h
36 24-02-2003 05:50:04 -3.5 C 3.03 g/m*3 -3.5 C 0 km/h
37 24-02-2003 06:00:04 -3.7 C 2.95 g/m*3 -3.7 C 0 km/h
38 24-02-2003 06:10:04 -3.5 C 3.03 g/m*3 -3.5 C 0 km/h
39 24-02-2003 06:20:04 -3.5 C 3.03 g/m*3 -3.5 C 0 km/h
40 24-02-2003 06:30:04 -3.7 C 2.99 g/m*3 -3.7 C 0 km/h
41 24-02-2003 06:40:04 -3.9 C 2.95 g/m*3 -3.9 C 0 km/h
42 24-02-2003 06:50:04 -3.6 C 3.01 g/m*3 -3.6 C 0 km/h
43 24-02-2003 07:00:04 -3.6 C 3.05 g/m*3 -3.6 C 0 km/h
44 24-02-2003 07:10:04 -3.9 C 2.95 g/m*3 -3.9 C 0 km/h
45 24-02-2003 07:20:04 -3.8 C 2.97 g/m*3 -3.8 C 0 km/h
46 24-02-2003 07:30:04 -3.9 C 2.95 g/m*3 -3.9 C 0 km/h
47 24-02-2003 07:40:04 -4 C 2.93 g/m*3 -4 C 0 km/h
48 24-02-2003 07:50:04 -3.9 C 2.95 g/m*3 -3.9 C 0 km/h
49 24-02-2003 08:00:04 -3.8 C 2.97 g/m*3 -3.8 C 0 km/h
50 24-02-2003 08:10:04 -3.8 C 2.97 g/m*3 -3.8 C 0 km/h
Sensor: Nr:Datum:Temp:Abs-Feuchte:Windchill:Wind:
Aussen-T/F 51 24-02-2003 08:20:04 -3.9 C 2.95 g/m*3 -3.9 C 0 km/h
52 24-02-2003 08:30:04 -3.7 C 2.99 g/m*3 -3.7 C 0 km/h
53 24-02-2003 08:40:04 -3.5 C 3.03 g/m*3 -3.5 C 0 km/h
54 24-02-2003 08:50:04 -3.5 C 3.03 g/m*3 -3.5 C 0 km/h
55 24-02-2003 09:00:04 -3.3 C 3.08 g/m*3 -3.3 C 0 km/h
56 24-02-2003 09:10:04 -3.2 C 3.1 g/m*3 -3.2 C 0 km/h
57 24-02-2003 09:20:04 -2.8 C 3.19 g/m*3 -2.8 C 0 km/h
58 24-02-2003 09:30:04 -2.8 C 3.19 g/m*3 -2.8 C 0 km/h
59 24-02-2003 09:40:04 -2.7 C 3.21 g/m*3 -2.7 C 0 km/h
60 24-02-2003 09:50:04 -2.4 C 3.28 g/m*3 -2.4 C 0 km/h
61 24-02-2003 10:00:04 -2.3 C 3.3 g/m*3 -2.3 C 0 km/h
62 24-02-2003 10:10:04 -1.6 C 3.55 g/m*3 -1.6 C 0 km/h
63 24-02-2003 10:20:04 -1.2 C 3.66 g/m*3 -1.2 C 0 km/h
64 24-02-2003 10:30:04 -0.6 C 3.81 g/m*3 -0.6 C 0 km/h
65 24-02-2003 10:40:04 0 C 3.97 g/m*3 0 C 0 km/h
66 24-02-2003 10:50:04 0.2 C 4.03 g/m*3 0.2 C 0 km/h
67 24-02-2003 11:00:04 1.1 C 4.08 g/m*3 1.1 C 0 km/h
68 24-02-2003 11:10:04 1.6 C 4.16 g/m*3 1.6 C 0 km/h
69 24-02-2003 11:14:41 1.9 C 4.19 g/m*3 1.9 C 0 km/h
70 24-02-2003 11:20:41 2 C 4.17 g/m*3 2 C 0 km/h
71 24-02-2003 11:26:41 2.2 C 4.22 g/m*3 2.2 C 0 km/h
72 24-02-2003 11:32:41 2.6 C 4.28 g/m*3 2.6 C 0 km/h
73 24-02-2003 11:38:41 2.7 C 4.25 g/m*3 2.7 C 0 km/h
74 24-02-2003 11:44:41 3.3 C 4.37 g/m*3 3.3 C 0 km/h
75 24-02-2003 11:50:41 3.5 C 4.24 g/m*3 3.5 C 0 km/h
Sensor: Nr:Datum:Temp:Abs-Feuchte:Windchill:Wind:
Aussen-T/F 76 24-02-2003 11:56:41 3.7 C 4.11 g/m*3 3.7 C 0 km/h
77 24-02-2003 12:02:41 4.1 C 4.22 g/m*3 4.1 C 0 km/h
78 24-02-2003 12:44:51 6.2 C 4.04 g/m*3 6.2 C 0 km/h
79 24-02-2003 12:56:51 7 C 4.03 g/m*3 7 C 0 km/h
80 24-02-2003 13:02:51 7.2 C 4 g/m*3 7.2 C 0 km/h
81 24-02-2003 13:08:51 7.5 C 4.08 g/m*3 7.5 C 0 km/h
82 24-02-2003 13:14:51 7.8 C 4.08 g/m*3 7.8 C 0 km/h
83 24-02-2003 13:20:51 8.1 C 4.08 g/m*3 8.1 C 0 km/h
84 24-02-2003 13:26:51 8.4 C 3.99 g/m*3 8.4 C 0 km/h
85 24-02-2003 13:32:51 8.8 C 4.09 g/m*3 8.8 C 0 km/h
86 24-02-2003 13:38:51 9 C 4.06 g/m*3 9 C 0 km/h
87 24-02-2003 13:44:51 9.3 C 4.13 g/m*3 9.3 C 0 km/h
88 24-02-2003 13:50:51 9.6 C 4.03 g/m*3 9.6 C 0 km/h
89 24-02-2003 13:56:51 9.8 C 4.18 g/m*3 9.8 C 0 km/h
90 24-02-2003 14:02:51 10.3 C 4.12 g/m*3 10.3 C 0 km/h
91 24-02-2003 14:08:51 10.8 C 4.05 g/m*3 10.8 C 0 km/h
92 24-02-2003 14:14:51 11.5 C 3.93 g/m*3 11.5 C 0 km/h
93 24-02-2003 14:20:51 12 C 3.73 g/m*3 12 C 0 km/h
94 24-02-2003 14:26:51 12.2 C 3.78 g/m*3 12.2 C 0 km/h
95 24-02-2003 14:32:51 12.6 C 3.76 g/m*3 12.6 C 0 km/h
96 24-02-2003 14:38:51 12.8 C 3.7 g/m*3 12.8 C 0 km/h
97 24-02-2003 14:44:51 13.4 C 3.49 g/m*3 13.4 C 0 km/h
98 24-02-2003 14:50:51 13.6 C 3.3 g/m*3 13.6 C 0 km/h
99 24-02-2003 14:56:51 13.8 C 3.57 g/m*3 13.8 C 0 km/h
100 24-02-2003 15:02:51 13.9 C 3.48 g/m*3 13.9 C 0 km/h
Sensor: Nr:Datum:Temp:Abs-Feuchte:Windchill:Wind:
Aussen-T/F 101 24-02-2003 15:08:51 13.9 C 3.36 g/m*3 13.9 C 0 km/h
102 24-02-2003 15:14:51 13.9 C 3.6 g/m*3 13.9 C 0 km/h
103 24-02-2003 15:20:51 14 C 3.5 g/m*3 14 C 0 km/h
104 24-02-2003 15:26:51 14.1 C 3.28 g/m*3 14.1 C 0 km/h
105 24-02-2003 15:32:51 14.3 C 3.69 g/m*3 14.3 C 0 km/h
106 24-02-2003 15:38:51 14.2 C 3.66 g/m*3 14.2 C 0 km/h
107 24-02-2003 15:44:51 14.2 C 3.79 g/m*3 14.2 C 0 km/h
108 24-02-2003 15:50:51 14.4 C 3.83 g/m*3 14.4 C 0 km/h
109 24-02-2003 15:56:51 14.4 C 3.71 g/m*3 14.4 C 0 km/h
110 24-02-2003 16:02:51 14.2 C 3.66 g/m*3 14.2 C 0 km/h
111 24-02-2003 16:08:51 14.2 C 3.54 g/m*3 14.2 C 0 km/h
112 24-02-2003 16:14:51 13.8 C 3.69 g/m*3 13.8 C 0 km/h
113 24-02-2003 16:20:51 13.7 C 3.67 g/m*3 13.7 C 0 km/h
114 24-02-2003 16:26:51 13.7 C 3.91 g/m*3 13.7 C 0 km/h
115 24-02-2003 16:32:51 13.6 C 3.77 g/m*3 13.6 C 0 km/h
116 24-02-2003 16:38:51 12.8 C 3.81 g/m*3 12.8 C 0 km/h
117 24-02-2003 16:44:51 12.9 C 3.83 g/m*3 12.9 C 0 km/h
118 24-02-2003 16:50:51 12.7 C 3.9 g/m*3 12.7 C 0 km/h
119 24-02-2003 16:56:51 12.5 C 3.96 g/m*3 12.5 C 0 km/h
120 24-02-2003 17:02:51 12 C 3.84 g/m*3 12 C 0 km/h
121 24-02-2003 17:08:51 11.7 C 3.87 g/m*3 11.7 C 0 km/h
122 24-02-2003 17:14:51 11.5 C 3.93 g/m*3 11.5 C 0 km/h
123 24-02-2003 17:20:51 10.8 C 3.76 g/m*3 10.8 C 0 km/h
124 24-02-2003 17:26:51 10.4 C 3.76 g/m*3 10.4 C 0 km/h
125 24-02-2003 17:32:51 10 C 3.76 g/m*3 10 C 0 km/h
Sensor: Nr:Datum:Temp:Abs-Feuchte:Windchill:Wind:
Aussen-T/F 126 24-02-2003 17:50:07 8.6 C 3.61 g/m*3 8.6 C 0 km/h
127 24-02-2003 17:56:09 8.2 C 3.6 g/m*3 8.2 C 0 km/h
128 24-02-2003 18:02:09 7.5 C 3.6 g/m*3 7.5 C 0 km/h
129 24-02-2003 18:08:09 7.1 C 3.59 g/m*3 7.1 C 0 km/h
130 24-02-2003 18:14:09 6.7 C 3.65 g/m*3 6.7 C 0 km/h
131 24-02-2003 18:20:09 6.4 C 3.65 g/m*3 6.4 C 0 km/h
132 24-02-2003 18:26:09 6.3 C 3.63 g/m*3 6.3 C 0 km/h
133 24-02-2003 18:32:09 5.9 C 3.61 g/m*3 5.9 C 0 km/h
134 24-02-2003 18:38:09 5.8 C 3.65 g/m*3 5.8 C 0 km/h
135 24-02-2003 18:44:09 5.6 C 3.61 g/m*3 5.6 C 0 km/h
136 24-02-2003 18:50:09 5.4 C 3.63 g/m*3 5.4 C 0 km/h
137 24-02-2003 18:56:09 5.2 C 3.58 g/m*3 5.2 C 0 km/h
138 24-02-2003 19:02:09 4.9 C 3.65 g/m*3 4.9 C 0 km/h
139 24-02-2003 19:08:09 4.7 C 3.66 g/m*3 4.7 C 0 km/h
140 24-02-2003 19:14:09 4.6 C 3.64 g/m*3 4.6 C 0 km/h
141 24-02-2003 19:20:09 4.6 C 3.64 g/m*3 4.6 C 0 km/h
142 24-02-2003 19:26:09 4.4 C 3.66 g/m*3 4.4 C 0 km/h
143 24-02-2003 19:32:09 4.2 C 3.67 g/m*3 4.2 C 0 km/h
144 24-02-2003 19:38:09 4.1 C 3.65 g/m*3 4.1 C 0 km/h
145 24-02-2003 19:44:09 4 C 3.62 g/m*3 4 C 0 km/h
146 24-02-2003 19:50:09 3.7 C 3.68 g/m*3 3.7 C 0 km/h
147 24-02-2003 19:56:09 3.5 C 3.63 g/m*3 3.5 C 0 km/h
148 24-02-2003 20:03:09 3.4 C 3.6 g/m*3 3.4 C 0 km/h
149 24-02-2003 20:09:09 3 C 3.57 g/m*3 3 C 0 km/h
150 24-02-2003 20:15:09 3 C 3.57 g/m*3 3 C 0 km/h
Sensor: Nr:Datum:Temp:Abs-Feuchte:Windchill:Wind:
Aussen-T/F 151 24-02-2003 20:21:09 2.8 C 3.58 g/m*3 2.8 C 0 km/h
152 24-02-2003 20:27:09 2.8 C 3.64 g/m*3 2.8 C 0 km/h
153 24-02-2003 20:33:09 2.6 C 3.59 g/m*3 2.6 C 0 km/h
154 24-02-2003 20:39:09 2.3 C 3.57 g/m*3 2.3 C 0 km/h
155 24-02-2003 20:45:09 2.1 C 3.52 g/m*3 2.1 C 0 km/h
156 24-02-2003 20:51:09 2.1 C 3.52 g/m*3 2.1 C 0 km/h
157 24-02-2003 20:57:09 2 C 3.56 g/m*3 2 C 0 km/h
158 24-02-2003 21:03:09 2 C 3.56 g/m*3 2 C 0 km/h
159 24-02-2003 21:09:09 2 C 3.56 g/m*3 2 C 0 km/h
160 24-02-2003 21:15:09 1.6 C 3.51 g/m*3 1.6 C 0 km/h
161 24-02-2003 21:21:09 1.4 C 3.47 g/m*3 1.4 C 0 km/h
162 24-02-2003 21:27:09 1.2 C 3.42 g/m*3 1.2 C 0 km/h
163 24-02-2003 21:33:09 0.9 C 3.4 g/m*3 0.9 C 0 km/h
164 24-02-2003 21:39:09 0.8 C 3.38 g/m*3 0.8 C 0 km/h
165 24-02-2003 21:45:09 0.9 C 3.51 g/m*3 0.9 C 0 km/h
166 24-02-2003 21:51:09 1 C 3.48 g/m*3 1 C 0 km/h
167 24-02-2003 21:57:09 1.2 C 3.53 g/m*3 1.2 C 0 km/h
168 24-02-2003 22:03:09 1.2 C 3.47 g/m*3 1.2 C 0 km/h
169 24-02-2003 22:09:09 1.1 C 3.45 g/m*3 1.1 C 0 km/h
170 24-02-2003 22:15:09 0.8 C 3.48 g/m*3 0.8 C 0 km/h
171 24-02-2003 22:21:09 0.7 C 3.46 g/m*3 0.7 C 0 km/h
172 24-02-2003 22:27:09 0.5 C 3.41 g/m*3 0.5 C 0 km/h
173 24-02-2003 22:33:09 0.2 C 3.39 g/m*3 0.2 C 0 km/h
174 24-02-2003 22:39:09 0 C 3.34 g/m*3 0 C 0 km/h
175 24-02-2003 22:45:09 0 C 3.39 g/m*3 0 C 0 km/h
Sensor: Nr:Datum:Temp:Abs-Feuchte:Windchill:Wind:
Aussen-T/F 176 24-02-2003 22:51:09 0 C 3.44 g/m*3 0 C 0 km/h
177 24-02-2003 22:57:09 -0.2 C 3.39 g/m*3 -0.2 C 0 km/h
178 24-02-2003 23:03:09 -0.4 C 3.3 g/m*3 -0.4 C 0 km/h
179 24-02-2003 23:09:09 -0.5 C 3.37 g/m*3 -0.5 C 0 km/h
180 24-02-2003 23:15:09 -0.5 C 3.37 g/m*3 -0.5 C 0 km/h
181 24-02-2003 23:21:09 -0.7 C 3.32 g/m*3 -0.7 C 0 km/h
182 24-02-2003 23:27:09 -0.7 C 3.32 g/m*3 -0.7 C 0 km/h
183 24-02-2003 23:33:09 -0.9 C 3.28 g/m*3 -0.9 C 0 km/h
184 24-02-2003 23:39:09 -1.1 C 3.23 g/m*3 -1.1 C 0 km/h
185 24-02-2003 23:45:09 -1.2 C 3.21 g/m*3 -1.2 C 0 km/h
186 24-02-2003 23:51:09 -1.3 C 3.19 g/m*3 -1.3 C 0 km/h
187 24-02-2003 23:57:09 -1.3 C 3.23 g/m*3 -1.3 C 0 km/h
188 25-02-2003 00:03:09 -1.3 C 3.23 g/m*3 -1.3 C 0 km/h
189 25-02-2003 00:09:09 -1.1 C 3.28 g/m*3 -1.1 C 0 km/h
190 25-02-2003 00:15:09 -1.2 C 3.25 g/m*3 -1.2 C 0 km/h
191 25-02-2003 00:21:09 -1.2 C 3.25 g/m*3 -1.2 C 0 km/h
192 25-02-2003 00:27:09 -1.3 C 3.23 g/m*3 -1.3 C 0 km/h
193 25-02-2003 00:33:09 -1.4 C 3.21 g/m*3 -1.4 C 0 km/h
194 25-02-2003 00:39:09 -1.3 C 3.28 g/m*3 -1.3 C 0 km/h
195 25-02-2003 00:45:09 -1.3 C 3.28 g/m*3 -1.3 C 0 km/h
196 25-02-2003 00:51:09 -1.5 C 3.23 g/m*3 -1.5 C 0 km/h
197 25-02-2003 00:57:09 -1.7 C 3.19 g/m*3 -1.7 C 0 km/h
198 25-02-2003 01:03:09 -1.7 C 3.14 g/m*3 -1.7 C 0 km/h
199 25-02-2003 01:09:09 -1.7 C 3.19 g/m*3 -1.7 C 0 km/h
200 25-02-2003 01:15:09 -1.8 C 3.16 g/m*3 -1.8 C 0 km/h
Sensor: Nr:Datum:Temp:Abs-Feuchte:Windchill:Wind:
Aussen-T/F 201 25-02-2003 01:21:09 -1.9 C 3.14 g/m*3 -1.9 C 0 km/h
202 25-02-2003 01:27:09 -2 C 3.12 g/m*3 -2 C 0 km/h
203 25-02-2003 01:33:09 -2.2 C 3.08 g/m*3 -2.2 C 0 km/h
204 25-02-2003 01:39:09 -2.3 C 3.05 g/m*3 -2.3 C 0 km/h
205 25-02-2003 01:45:09 -2.4 C 3.03 g/m*3 -2.4 C 0 km/h
206 25-02-2003 01:51:09 -2.4 C 3.07 g/m*3 -2.4 C 0 km/h
207 25-02-2003 01:57:09 -2.3 C 3.1 g/m*3 -2.3 C 0 km/h
208 25-02-2003 02:03:09 -2.3 C 3.14 g/m*3 -2.3 C 0 km/h
209 25-02-2003 02:09:09 -2.3 C 3.1 g/m*3 -2.3 C 0 km/h
210 25-02-2003 02:15:09 -2.3 C 3.1 g/m*3 -2.3 C 0 km/h
211 25-02-2003 02:21:09 -2.3 C 3.1 g/m*3 -2.3 C 0 km/h
212 25-02-2003 02:27:09 -2.3 C 3.1 g/m*3 -2.3 C 0 km/h
213 25-02-2003 02:33:09 -2.6 C 3.03 g/m*3 -2.6 C 0 km/h
214 25-02-2003 02:39:09 -2.8 C 2.99 g/m*3 -2.8 C 0 km/h
215 25-02-2003 02:45:09 -2.8 C 3.03 g/m*3 -2.8 C 0 km/h
216 25-02-2003 02:51:09 -2.8 C 3.03 g/m*3 -2.8 C 0 km/h
217 25-02-2003 02:57:09 -2.9 C 3.01 g/m*3 -2.9 C 0 km/h
218 25-02-2003 03:03:09 -2.7 C 3.05 g/m*3 -2.7 C 0 km/h
219 25-02-2003 03:09:09 -2.9 C 3.01 g/m*3 -2.9 C 0 km/h
220 25-02-2003 03:15:09 -2.9 C 3.01 g/m*3 -2.9 C 0 km/h
221 25-02-2003 03:21:09 -3 C 2.99 g/m*3 -3 C 0 km/h
222 25-02-2003 03:27:09 -2.9 C 3.01 g/m*3 -2.9 C 0 km/h
223 25-02-2003 03:33:09 -3 C 2.99 g/m*3 -3 C 0 km/h
224 25-02-2003 03:39:09 -3.1 C 2.93 g/m*3 -3.1 C 0 km/h
225 25-02-2003 03:45:09 -3.2 C 2.9 g/m*3 -3.2 C 0 km/h
Sensor: Nr:Datum:Temp:Abs-Feuchte:Windchill:Wind:
Aussen-T/F 226 25-02-2003 03:51:09 -3.2 C 2.94 g/m*3 -3.2 C 0 km/h
227 25-02-2003 03:57:09 -3.3 C 2.92 g/m*3 -3.3 C 0 km/h
228 25-02-2003 04:03:09 -3.2 C 2.94 g/m*3 -3.2 C 0 km/h
229 25-02-2003 04:09:09 -3.2 C 2.94 g/m*3 -3.2 C 0 km/h
230 25-02-2003 04:15:09 -3.4 C 2.9 g/m*3 -3.4 C 0 km/h
231 25-02-2003 04:21:09 -3.5 C 2.88 g/m*3 -3.5 C 0 km/h
232 25-02-2003 04:27:09 -3.5 C 2.88 g/m*3 -3.5 C 0 km/h
233 25-02-2003 04:33:09 -3.6 C 2.86 g/m*3 -3.6 C 0 km/h
234 25-02-2003 04:39:09 -3.6 C 2.86 g/m*3 -3.6 C 0 km/h
235 25-02-2003 04:45:09 -3.5 C 2.92 g/m*3 -3.5 C 0 km/h
236 25-02-2003 04:51:09 -3.8 C 2.82 g/m*3 -3.8 C 0 km/h
237 25-02-2003 04:57:09 -4 C 2.74 g/m*3 -4 C 0 km/h
238 25-02-2003 05:03:09 -4.1 C 2.72 g/m*3 -4.1 C 0 km/h
239 25-02-2003 05:09:09 -4.2 C 2.74 g/m*3 -4.2 C 0 km/h
240 25-02-2003 05:15:09 -4.2 C 2.78 g/m*3 -4.2 C 0 km/h
241 25-02-2003 05:21:09 -4.3 C 2.76 g/m*3 -4.3 C 0 km/h
242 25-02-2003 05:27:09 -4.4 C 2.7 g/m*3 -4.4 C 0 km/h
243 25-02-2003 05:33:09 -4.7 C 2.64 g/m*3 -4.7 C 0 km/h
244 25-02-2003 05:39:09 -4.7 C 2.64 g/m*3 -4.7 C 0 km/h
245 25-02-2003 05:45:09 -4.7 C 2.64 g/m*3 -4.7 C 0 km/h
246 25-02-2003 05:51:09 -4.7 C 2.68 g/m*3 -4.7 C 0 km/h
247 25-02-2003 05:57:09 -4.8 C 2.66 g/m*3 -4.8 C 0 km/h
248 25-02-2003 06:03:09 -4.8 C 2.66 g/m*3 -4.8 C 0 km/h
249 25-02-2003 06:09:09 -4.8 C 2.66 g/m*3 -4.8 C 0 km/h
250 25-02-2003 06:15:09 -4.9 C 2.64 g/m*3 -4.9 C 0 km/h
Sensor: Nr:Datum:Temp:Abs-Feuchte:Windchill:Wind:
Aussen-T/F 251 25-02-2003 06:21:09 -4.9 C 2.64 g/m*3 -4.9 C 0 km/h
252 25-02-2003 06:27:09 -4.8 C 2.66 g/m*3 -4.8 C 0 km/h
253 25-02-2003 06:33:09 -4.9 C 2.64 g/m*3 -4.9 C 0 km/h
254 25-02-2003 06:39:09 -5 C 2.62 g/m*3 -5 C 0 km/h
255 25-02-2003 06:45:09 -5 C 2.62 g/m*3 -5 C 0 km/h
256 25-02-2003 06:51:09 -5.1 C 2.6 g/m*3 -5.1 C 0 km/h
257 25-02-2003 06:57:09 -5.2 C 2.58 g/m*3 -5.2 C 0 km/h
258 25-02-2003 07:03:09 -5.2 C 2.58 g/m*3 -5.2 C 0 km/h
259 25-02-2003 07:09:09 -5.4 C 2.55 g/m*3 -5.4 C 0 km/h
260 25-02-2003 07:15:09 -5.4 C 2.55 g/m*3 -5.4 C 0 km/h
261 25-02-2003 07:21:09 -5.5 C 2.53 g/m*3 -5.5 C 0 km/h
262 25-02-2003 07:27:09 -5.5 C 2.53 g/m*3 -5.5 C 0 km/h
263 25-02-2003 07:33:09 -5.4 C 2.55 g/m*3 -5.4 C 0 km/h
264 25-02-2003 07:39:09 -5.5 C 2.53 g/m*3 -5.5 C 0 km/h
265 25-02-2003 07:45:09 -5.4 C 2.55 g/m*3 -5.4 C 0 km/h
266 25-02-2003 07:51:09 -5.4 C 2.55 g/m*3 -5.4 C 0 km/h
267 25-02-2003 07:57:09 -5.4 C 2.55 g/m*3 -5.4 C 0 km/h
268 25-02-2003 08:03:09 -5.3 C 2.57 g/m*3 -5.3 C 0 km/h
269 25-02-2003 08:09:09 -5.2 C 2.58 g/m*3 -5.2 C 0 km/h
270 25-02-2003 08:15:09 -5.1 C 2.6 g/m*3 -5.1 C 0 km/h
271 25-02-2003 08:21:09 -5 C 2.62 g/m*3 -5 C 0 km/h
272 25-02-2003 08:27:09 -5.1 C 2.6 g/m*3 -5.1 C 0 km/h
273 25-02-2003 08:33:09 -5 C 2.62 g/m*3 -5 C 0 km/h
274 25-02-2003 08:39:09 -5 C 2.62 g/m*3 -5 C 0 km/h
275 25-02-2003 08:45:09 -5 C 2.62 g/m*3 -5 C 0 km/h
Sensor: Nr:Datum:Temp:Abs-Feuchte:Windchill:Wind:
Aussen-T/F 276 25-02-2003 08:51:09 -5 C 2.62 g/m*3 -5 C 0 km/h
277 25-02-2003 08:57:09 -4.7 C 2.71 g/m*3 -4.7 C 0 km/h
278 25-02-2003 09:03:09 -4.7 C 2.71 g/m*3 -4.7 C 0 km/h
279 25-02-2003 09:09:09 -4.6 C 2.73 g/m*3 -4.6 C 0 km/h
280 25-02-2003 09:15:09 -4.6 C 2.7 g/m*3 -4.6 C 0 km/h
281 25-02-2003 09:21:09 -4.4 C 2.74 g/m*3 -4.4 C 0 km/h
282 25-02-2003 09:27:09 -4.4 C 2.74 g/m*3 -4.4 C 0 km/h
283 25-02-2003 09:33:09 -4.3 C 2.76 g/m*3 -4.3 C 0 km/h
284 25-02-2003 09:39:09 -4.2 C 2.81 g/m*3 -4.2 C 0 km/h
285 25-02-2003 09:45:09 -4.1 C 2.83 g/m*3 -4.1 C 0 km/h
286 25-02-2003 09:51:09 -4 C 2.85 g/m*3 -4 C 0 km/h
287 25-02-2003 09:57:09 -3.8 C 2.89 g/m*3 -3.8 C 0 km/h
288 25-02-2003 10:03:09 -3.5 C 2.99 g/m*3 -3.5 C 0 km/h
289 25-02-2003 10:09:09 -3 C 3.14 g/m*3 -3 C 0 km/h
290 25-02-2003 10:15:09 -2.7 C 3.25 g/m*3 -2.7 C 0 km/h
291 25-02-2003 10:21:09 -2.3 C 3.34 g/m*3 -2.3 C 0 km/h
292 25-02-2003 10:27:09 -1.9 C 3.44 g/m*3 -1.9 C 0 km/h
293 25-02-2003 10:33:09 -1.2 C 3.57 g/m*3 -1.2 C 0 km/h
294 25-02-2003 10:39:09 -0.9 C 3.64 g/m*3 -0.9 C 0 km/h
295 25-02-2003 10:45:09 -0.4 C 3.72 g/m*3 -0.4 C 0 km/h
296 25-02-2003 10:51:09 -0.2 C 3.73 g/m*3 -0.2 C 0 km/h
297 25-02-2003 10:57:09 0.2 C 3.83 g/m*3 0.2 C 0 km/h
298 25-02-2003 11:03:09 0.3 C 3.86 g/m*3 0.3 C 0 km/h
299 25-02-2003 11:09:09 0.7 C 3.97 g/m*3 0.7 C 0 km/h
300 25-02-2003 11:15:09 0.7 C 3.97 g/m*3 0.7 C 0 km/h
Sensor: Nr:Datum:Temp:Abs-Feuchte:Windchill:Wind:
Aussen-T/F 301 25-02-2003 11:21:09 1.3 C 3.97 g/m*3 1.3 C 0 km/h
302 25-02-2003 11:27:09 1.5 C 3.97 g/m*3 1.5 C 0 km/h
303 25-02-2003 11:33:09 1.8 C 3.89 g/m*3 1.8 C 0 km/h
304 25-02-2003 11:39:09 2.5 C 3.68 g/m*3 2.5 C 0 km/h
305 25-02-2003 11:45:09 2.9 C 3.48 g/m*3 2.9 C 0 km/h
306 25-02-2003 11:51:09 3 C 3.39 g/m*3 3 C 0 km/h
307 25-02-2003 11:57:09 3.3 C 3.52 g/m*3 3.3 C 0 km/h
308 25-02-2003 12:03:09 3.6 C 3.53 g/m*3 3.6 C 0 km/h
309 25-02-2003 12:09:09 4.1 C 3.26 g/m*3 4.1 C 0 km/h
310 25-02-2003 12:15:09 4.8 C 3.08 g/m*3 4.8 C 0 km/h
311 25-02-2003 12:21:09 5.2 C 3.1 g/m*3 5.2 C 0 km/h
312 25-02-2003 12:27:09 5.7 C 3.06 g/m*3 5.7 C 0 km/h
313 25-02-2003 12:33:09 6.1 C 3 g/m*3 6.1 C 0 km/h
314 25-02-2003 12:39:09 6.3 C 2.96 g/m*3 6.3 C 0 km/h
315 25-02-2003 12:45:09 6.5 C 3 g/m*3 6.5 C 0 km/h
316 25-02-2003 12:51:09 6.9 C 3 g/m*3 6.9 C 0 km/h
317 25-02-2003 12:57:09 7.2 C 2.98 g/m*3 7.2 C 0 km/h
318 25-02-2003 13:03:09 7.4 C 2.94 g/m*3 7.4 C 0 km/h
319 25-02-2003 13:09:09 7.7 C 2.92 g/m*3 7.7 C 0 km/h
320 25-02-2003 13:15:09 7.9 C 2.96 g/m*3 7.9 C 0 km/h
321 25-02-2003 13:21:09 8.2 C 2.93 g/m*3 8.2 C 0 km/h
322 25-02-2003 13:27:09 8.6 C 3.01 g/m*3 8.6 C 0 km/h
323 25-02-2003 13:33:09 8.9 C 2.98 g/m*3 8.9 C 0 km/h
324 25-02-2003 13:39:09 9.1 C 2.93 g/m*3 9.1 C 0 km/h
325 25-02-2003 13:45:09 9.4 C 2.98 g/m*3 9.4 C 0 km/h
Sensor: Nr:Datum:Temp:Abs-Feuchte:Windchill:Wind:
Aussen-T/F 326 25-02-2003 13:51:09 9.6 C 2.93 g/m*3 9.6 C 0 km/h
327 25-02-2003 13:57:09 9.8 C 3.06 g/m*3 9.8 C 0 km/h
328 25-02-2003 14:03:09 10.2 C 2.95 g/m*3 10.2 C 0 km/h
329 25-02-2003 14:09:09 10.3 C 2.87 g/m*3 10.3 C 0 km/h
330 25-02-2003 14:15:09 10.5 C 2.91 g/m*3 10.5 C 0 km/h
331 25-02-2003 14:21:09 10.8 C 2.97 g/m*3 10.8 C 0 km/h
332 25-02-2003 14:33:09 11 C 3 g/m*3 11 C 0 km/h
333 25-02-2003 14:39:09 11.3 C 3.06 g/m*3 11.3 C 0 km/h
334 25-02-2003 14:45:09 11.7 C 3.14 g/m*3 11.7 C 0 km/h
335 25-02-2003 14:51:09 11.5 C 3.1 g/m*3 11.5 C 0 km/h
336 25-02-2003 14:57:09 11.9 C 3.07 g/m*3 11.9 C 0 km/h
337 25-02-2003 15:03:09 12.1 C 2.9 g/m*3 12.1 C 0 km/h
338 25-02-2003 15:09:09 12.2 C 3.02 g/m*3 12.2 C 0 km/h
339 25-02-2003 15:15:09 12.3 C 3.26 g/m*3 12.3 C 0 km/h
340 25-02-2003 15:21:09 12.4 C 3.28 g/m*3 12.4 C 0 km/h
341 25-02-2003 15:27:09 12.4 C 3.17 g/m*3 12.4 C 0 km/h
342 25-02-2003 15:33:09 12.5 C 3.08 g/m*3 12.5 C 0 km/h
343 25-02-2003 15:39:09 12.6 C 3.32 g/m*3 12.6 C 0 km/h
344 25-02-2003 15:45:09 12.7 C 3.23 g/m*3 12.7 C 0 km/h
345 25-02-2003 15:51:09 12.8 C 3.25 g/m*3 12.8 C 0 km/h
346 25-02-2003 15:57:09 12.9 C 3.16 g/m*3 12.9 C 0 km/h
347 25-02-2003 16:03:09 12.7 C 2.89 g/m*3 12.7 C 0 km/h
348 25-02-2003 16:09:09 12.8 C 3.02 g/m*3 12.8 C 0 km/h
349 25-02-2003 16:15:09 12.7 C 3.12 g/m*3 12.7 C 0 km/h
350 25-02-2003 16:21:09 12.5 C 3.19 g/m*3 12.5 C 0 km/h
Sensor: Nr:Datum:Temp:Abs-Feuchte:Windchill:Wind:
Aussen-T/F 351 25-02-2003 16:27:09 12.2 C 3.24 g/m*3 12.2 C 0 km/h
352 25-02-2003 16:33:09 12 C 3.2 g/m*3 12 C 0 km/h
353 25-02-2003 16:39:09 11.8 C 3.37 g/m*3 11.8 C 0 km/h
354 25-02-2003 16:45:09 11.7 C 3.35 g/m*3 11.7 C 0 km/h
355 25-02-2003 16:51:09 11.4 C 3.28 g/m*3 11.4 C 0 km/h
356 25-02-2003 16:57:09 11 C 3.2 g/m*3 11 C 0 km/h
357 25-02-2003 17:03:09 10.7 C 3.24 g/m*3 10.7 C 0 km/h
358 25-02-2003 17:09:09 10.8 C 3.36 g/m*3 10.8 C 0 km/h
359 25-02-2003 17:15:09 10.3 C 3.26 g/m*3 10.3 C 0 km/h
360 25-02-2003 17:21:09 10.1 C 3.22 g/m*3 10.1 C 0 km/h
361 25-02-2003 17:27:09 9.6 C 3.21 g/m*3 9.6 C 0 km/h
362 25-02-2003 17:33:09 8.8 C 3.13 g/m*3 8.8 C 0 km/h
363 25-02-2003 17:39:09 8.1 C 3.16 g/m*3 8.1 C 0 km/h
364 25-02-2003 17:45:09 7.5 C 3.2 g/m*3 7.5 C 0 km/h
365 25-02-2003 17:51:09 7 C 3.18 g/m*3 7 C 0 km/h
366 25-02-2003 17:57:09 6.7 C 3.19 g/m*3 6.7 C 0 km/h
367 25-02-2003 18:03:09 6.2 C 3.24 g/m*3 6.2 C 0 km/h
368 25-02-2003 18:09:09 5.9 C 3.17 g/m*3 5.9 C 0 km/h
369 25-02-2003 18:15:09 5.6 C 3.18 g/m*3 5.6 C 0 km/h
370 25-02-2003 18:21:09 5.5 C 3.16 g/m*3 5.5 C 0 km/h
371 25-02-2003 18:27:09 5.2 C 3.17 g/m*3 5.2 C 0 km/h
372 25-02-2003 18:33:09 4.9 C 3.17 g/m*3 4.9 C 0 km/h
373 25-02-2003 18:39:09 4.7 C 3.13 g/m*3 4.7 C 0 km/h
374 25-02-2003 18:45:09 4.5 C 3.16 g/m*3 4.5 C 0 km/h
375 25-02-2003 18:51:09 4.1 C 3.26 g/m*3 4.1 C 0 km/h
Sensor: Nr:Datum:Temp:Abs-Feuchte:Windchill:Wind:
Aussen-T/F 376 25-02-2003 18:57:09 3.8 C 3.26 g/m*3 3.8 C 0 km/h
377 25-02-2003 19:03:09 3.7 C 3.18 g/m*3 3.7 C 0 km/h
378 25-02-2003 19:09:09 3.6 C 3.22 g/m*3 3.6 C 0 km/h
379 25-02-2003 19:15:09 3.5 C 3.26 g/m*3 3.5 C 0 km/h
380 25-02-2003 19:21:09 3.2 C 3.19 g/m*3 3.2 C 0 km/h
381 25-02-2003 19:27:09 3.1 C 3.23 g/m*3 3.1 C 0 km/h
382 25-02-2003 19:33:09 2.9 C 3.25 g/m*3 2.9 C 0 km/h
383 25-02-2003 19:39:09 2.8 C 3.28 g/m*3 2.8 C 0 km/h
384 25-02-2003 19:45:09 2.7 C 3.26 g/m*3 2.7 C 0 km/h
385 25-02-2003 19:51:09 2.5 C 3.28 g/m*3 2.5 C 0 km/h
386 25-02-2003 19:57:09 2.4 C 3.25 g/m*3 2.4 C 0 km/h
387 25-02-2003 20:04:10 2.1 C 3.24 g/m*3 2.1 C 0 km/h
388 25-02-2003 20:10:10 2 C 3.22 g/m*3 2 C 0 km/h
389 25-02-2003 20:16:10 2 C 3.22 g/m*3 2 C 0 km/h
390 25-02-2003 20:22:10 2 C 3.17 g/m*3 2 C 0 km/h
391 25-02-2003 20:28:10 1.8 C 3.12 g/m*3 1.8 C 0 km/h
392 25-02-2003 20:34:10 1.8 C 3.12 g/m*3 1.8 C 0 km/h
393 25-02-2003 20:40:10 1.7 C 3.1 g/m*3 1.7 C 0 km/h
394 25-02-2003 20:46:10 1.4 C 3.09 g/m*3 1.4 C 0 km/h
395 25-02-2003 20:52:10 1.1 C 3.08 g/m*3 1.1 C 0 km/h
396 25-02-2003 20:58:10 1 C 3.11 g/m*3 1 C 0 km/h
397 25-02-2003 21:04:10 0.8 C 3.17 g/m*3 0.8 C 0 km/h
398 25-02-2003 21:10:10 0.7 C 3.2 g/m*3 0.7 C 0 km/h
399 25-02-2003 21:16:10 0.5 C 3.16 g/m*3 0.5 C 0 km/h
400 25-02-2003 21:22:10 0.3 C 3.07 g/m*3 0.3 C 0 km/h
Sensor: Nr:Datum:Temp:Abs-Feuchte:Windchill:Wind:
Aussen-T/F 401 25-02-2003 21:28:10 0.2 C 3.09 g/m*3 0.2 C 0 km/h
402 25-02-2003 21:34:10 0.2 C 3.14 g/m*3 0.2 C 0 km/h
403 25-02-2003 21:40:10 0.2 C 3.14 g/m*3 0.2 C 0 km/h
404 25-02-2003 21:46:10 0.1 C 3.12 g/m*3 0.1 C 0 km/h
405 25-02-2003 21:52:10 0 C 3.1 g/m*3 0 C 0 km/h
406 25-02-2003 21:58:10 -0.2 C 3.06 g/m*3 -0.2 C 0 km/h
407 25-02-2003 22:04:10 -0.2 C 3.11 g/m*3 -0.2 C 0 km/h
408 25-02-2003 22:10:10 -0.4 C 3.11 g/m*3 -0.4 C 0 km/h
409 25-02-2003 22:16:10 -0.6 C 3.02 g/m*3 -0.6 C 0 km/h
410 25-02-2003 22:22:10 -0.8 C 3.03 g/m*3 -0.8 C 0 km/h
411 25-02-2003 22:28:10 -0.6 C 3.11 g/m*3 -0.6 C 0 km/h
412 25-02-2003 22:34:10 -0.6 C 3.07 g/m*3 -0.6 C 0 km/h
413 25-02-2003 22:40:10 -0.7 C 3.05 g/m*3 -0.7 C 0 km/h
414 25-02-2003 22:46:10 -0.5 C 3.09 g/m*3 -0.5 C 0 km/h
415 25-02-2003 22:52:10 -0.6 C 3.02 g/m*3 -0.6 C 0 km/h
416 25-02-2003 22:58:10 -0.9 C 2.96 g/m*3 -0.9 C 0 km/h
417 25-02-2003 23:04:10 -1.1 C 2.92 g/m*3 -1.1 C 0 km/h
418 25-02-2003 23:10:10 -1.2 C 2.94 g/m*3 -1.2 C 0 km/h
419 25-02-2003 23:16:10 -1.3 C 2.92 g/m*3 -1.3 C 0 km/h
420 25-02-2003 23:22:10 -1.4 C 2.9 g/m*3 -1.4 C 0 km/h
421 25-02-2003 23:28:10 -1.4 C 2.95 g/m*3 -1.4 C 0 km/h
422 25-02-2003 23:34:10 -1.4 C 2.95 g/m*3 -1.4 C 0 km/h
423 25-02-2003 23:40:10 -1.5 C 2.92 g/m*3 -1.5 C 0 km/h
424 25-02-2003 23:46:10 -1.4 C 2.95 g/m*3 -1.4 C 0 km/h
425 25-02-2003 23:52:10 -1.5 C 2.92 g/m*3 -1.5 C 0 km/h
Sensor: Nr:Datum:Temp:Abs-Feuchte:Windchill:Wind:
Aussen-T/F 426 25-02-2003 23:58:10 -1.7 C 2.84 g/m*3 -1.7 C 0 km/h

Legende:
   Min
   Max


Maximal/Minimal-Werte vom 24.02.2003 - 25.02.2003

Sensor Min Max Avg
Temp
(Aussen-T/F)
-5.5 °C
25-02-2003  07:21:09
14.4 °C
24-02-2003  15:50:51
2.04 °C
Abs-Feuchte
(Aussen-T/F)
2.53 g/m*3
25-02-2003  07:21:09
4.37 g/m*3
24-02-2003  11:44:41
3.25 g/m*3
Windchill
(Aussen-T/F)
-5.5 C
25-02-2003  07:21:09
14.4 C
24-02-2003  15:50:51
2.04 C

Die Daten stammen von einer Davis Vantage Pro 2 Wetter-Station und werden unter Linux mit der Software wview2wettercgi und aufbereitet. Alle Angaben erfolgen ohne Gewähr für ihre Vollständigkeit oder Richtigkeit.
Kontakt: Rainer Krienke krienke@uni-koblenz.de . Meine Webseiten an der Uni Koblenz oder privat.
Version: $Revision: 0.78 $